Time,TemperatureF,DewpointF,PressureIn,WindDirection,WindDirectionDegrees,WindSpeedMPH,WindSpeedGustMPH,Humidity,HourlyPrecipIn,Conditions,Clouds,dailyrainin,SoftwareType,DateUTC
2013-01-16 09:35:00,30.1,24.7,29.94,SW,235,0.0,0.0,80,0.00,,,0.00,Wunderground v.1.15,2013-01-16 14:35:00,
2013-01-16 09:40:00,30.2,24.8,29.93,SW,235,0.0,0.0,80,0.00,,,0.00,Wunderground v.1.15,2013-01-16 14:40:00,
2013-01-16 09:45:00,30.3,24.9,29.93,SW,235,0.0,1.0,80,0.00,,,0.00,Wunderground v.1.15,2013-01-16 14:45:00,
2013-01-16 09:50:00,30.3,24.9,29.93,SSW,213,0.0,2.0,80,0.00,,,0.00,Wunderground v.1.15,2013-01-16 14:50:00,
2013-01-16 10:00:00,30.5,25.1,29.92,SSW,207,0.0,0.0,80,0.00,,,0.00,Wunderground v.1.15,2013-01-16 15:00:00,
2013-01-16 10:10:00,30.6,25.2,29.90,SSW,207,0.0,2.0,80,0.00,,,0.00,Wunderground v.1.15,2013-01-16 15:10:00,
2013-01-16 10:15:00,30.7,25.3,29.90,SSW,201,1.0,2.0,80,0.00,,,0.00,Wunderground v.1.15,2013-01-16 15:15:00,
2013-01-16 10:20:00,30.8,25.4,29.90,South,182,1.0,1.0,80,0.00,,,0.00,Wunderground v.1.15,2013-01-16 15:20:00,
2013-01-16 10:25:00,30.9,25.5,29.89,South,178,1.0,1.0,80,0.00,,,0.00,Wunderground v.1.15,2013-01-16 15:25:00,
2013-01-16 10:30:00,31.0,25.6,29.89,South,178,1.0,1.0,80,0.00,,,0.00,Wunderground v.1.15,2013-01-16 15:30:00,
2013-01-16 10:40:00,31.2,25.7,29.88,South,178,0.0,2.0,80,0.00,,,0.00,Wunderground v.1.15,2013-01-16 15:40:00,
2013-01-16 10:45:00,31.3,25.8,29.88,South,178,0.0,2.0,80,0.00,,,0.00,Wunderground v.1.15,2013-01-16 15:45:00,
2013-01-16 10:50:00,31.5,26.0,29.88,South,180,0.0,2.0,80,0.00,,,0.00,Wunderground v.1.15,2013-01-16 15:50:00,
2013-01-16 10:55:00,31.6,26.1,29.87,South,180,0.0,2.0,80,0.00,,,0.00,Wunderground v.1.15,2013-01-16 15:55:00,
2013-01-16 11:00:00,31.8,26.3,29.87,South,179,0.0,2.0,80,0.00,,,0.00,Wunderground v.1.15,2013-01-16 16:00:00,
2013-01-16 11:05:00,31.9,26.4,29.87,South,179,0.0,2.0,80,0.00,,,0.00,Wunderground v.1.15,2013-01-16 16:05:00,
2013-01-16 11:10:00,32.0,26.5,29.88,South,176,0.0,2.0,80,0.00,,,0.00,Wunderground v.1.15,2013-01-16 16:10:00,
2013-01-16 11:15:00,32.1,26.9,29.87,South,176,0.0,2.0,81,0.00,,,0.00,Wunderground v.1.15,2013-01-16 16:15:00,
2013-01-16 11:25:00,32.3,27.1,29.85,South,175,1.0,2.0,81,0.00,,,0.00,Wunderground v.1.15,2013-01-16 16:25:00,
2013-01-16 11:30:00,32.4,27.2,29.84,South,175,1.0,2.0,81,0.00,,,0.00,Wunderground v.1.15,2013-01-16 16:30:00,
2013-01-16 11:35:00,32.4,27.2,29.84,South,175,1.0,2.0,81,0.00,,,0.00,Wunderground v.1.15,2013-01-16 16:35:00,
2013-01-16 11:40:00,32.4,27.2,29.83,South,174,1.0,1.0,81,0.00,,,0.00,Wunderground v.1.15,2013-01-16 16:40:00,
2013-01-16 11:45:00,32.5,27.3,29.83,South,176,1.0,2.0,81,0.00,,,0.00,Wunderground v.1.15,2013-01-16 16:45:00,
2013-01-16 11:50:00,32.6,27.4,29.83,South,176,0.0,2.0,81,0.00,,,0.00,Wunderground v.1.15,2013-01-16 16:50:00,
2013-01-16 11:55:00,32.7,27.5,29.83,South,176,0.0,2.0,81,0.00,,,0.00,Wunderground v.1.15,2013-01-16 16:55:00,
2013-01-16 12:05:00,32.9,27.7,29.82,South,174,1.0,2.0,81,0.00,,,0.00,Wunderground v.1.15,2013-01-16 17:05:00,
2013-01-16 12:10:00,33.0,28.1,29.82,South,174,0.0,2.0,82,0.00,,,0.00,Wunderground v.1.15,2013-01-16 17:10:00,
2013-01-16 12:15:00,33.0,27.8,29.82,South,170,1.0,2.0,81,0.00,,,0.00,Wunderground v.1.15,2013-01-16 17:15:00,
2013-01-16 12:20:00,33.0,27.8,29.82,South,170,1.0,1.0,81,0.00,,,0.00,Wunderground v.1.15,2013-01-16 17:20:00,
2013-01-16 12:25:00,33.2,28.3,29.83,South,177,1.0,2.0,82,0.00,,,0.00,Wunderground v.1.15,2013-01-16 17:25:00,
2013-01-16 12:30:00,33.2,28.0,29.82,South,177,0.0,2.0,81,0.00,,,0.00,Wunderground v.1.15,2013-01-16 17:30:00,
2013-01-16 12:35:00,33.3,28.1,29.81,South,178,1.0,2.0,81,0.00,,,0.00,Wunderground v.1.15,2013-01-16 17:35:00,
2013-01-16 12:45:00,33.6,28.4,29.81,South,180,1.0,2.0,81,0.00,,,0.00,Wunderground v.1.15,2013-01-16 17:45:00,
2013-01-16 12:50:00,33.9,28.7,29.81,South,181,1.0,1.0,81,0.00,,,0.00,Wunderground v.1.15,2013-01-16 17:50:00,
2013-01-16 12:55:00,34.3,28.8,29.80,South,182,1.0,2.0,80,0.00,,,0.00,Wunderground v.1.15,2013-01-16 17:55:00,
2013-01-16 13:00:00,34.4,28.9,29.80,South,180,1.0,2.0,80,0.00,,,0.00,Wunderground v.1.15,2013-01-16 18:00:00,
2013-01-16 13:05:00,34.4,28.9,29.81,South,181,1.0,2.0,80,0.00,,,0.00,Wunderground v.1.15,2013-01-16 18:05:00,
2013-01-16 13:10:00,34.7,29.2,29.81,South,181,1.0,1.0,80,0.00,,,0.00,Wunderground v.1.15,2013-01-16 18:10:00,
2013-01-16 13:20:00,34.6,28.8,29.80,South,182,0.0,2.0,79,0.00,,,0.00,Wunderground v.1.15,2013-01-16 18:20:00,
2013-01-16 13:25:00,34.8,29.0,29.80,South,182,0.0,2.0,79,0.00,,,0.00,Wunderground v.1.15,2013-01-16 18:25:00,
2013-01-16 13:30:00,34.8,29.0,29.79,South,182,0.0,2.0,79,0.00,,,0.00,Wunderground v.1.15,2013-01-16 18:30:00,
2013-01-16 13:35:00,34.7,28.5,29.79,South,182,0.0,2.0,78,0.00,,,0.00,Wunderground v.1.15,2013-01-16 18:35:00,
2013-01-16 13:40:00,34.7,28.5,29.79,South,182,0.0,2.0,78,0.00,,,0.00,Wunderground v.1.15,2013-01-16 18:40:00,
2013-01-16 13:45:00,35.1,29.2,29.79,South,182,0.0,2.0,79,0.00,,,0.00,Wunderground v.1.15,2013-01-16 18:45:00,
2013-01-16 13:50:00,35.6,29.1,29.79,South,183,1.0,3.0,77,0.00,,,0.00,Wunderground v.1.15,2013-01-16 18:50:00,
2013-01-16 14:00:00,35.5,29.0,29.78,South,186,0.0,2.0,77,0.00,,,0.00,Wunderground v.1.15,2013-01-16 19:00:00,
2013-01-16 14:05:00,35.7,29.2,29.79,South,186,0.0,2.0,77,0.00,,,0.00,Wunderground v.1.15,2013-01-16 19:05:00,
2013-01-16 14:10:00,35.9,29.4,29.78,South,186,0.0,2.0,77,0.00,,,0.00,Wunderground v.1.15,2013-01-16 19:10:00,
2013-01-16 14:15:00,35.8,29.0,29.78,South,186,1.0,2.0,76,0.00,,,0.00,Wunderground v.1.15,2013-01-16 19:15:00,
2013-01-16 14:20:00,35.9,29.4,29.78,South,186,1.0,1.0,77,0.00,,,0.00,Wunderground v.1.15,2013-01-16 19:20:00,
2013-01-16 14:25:00,36.0,29.5,29.77,South,186,0.0,2.0,77,0.00,,,0.00,Wunderground v.1.15,2013-01-16 19:25:00,
2013-01-16 14:30:00,36.2,29.7,29.78,South,187,0.0,2.0,77,0.00,,,0.00,Wunderground v.1.15,2013-01-16 19:30:00,
2013-01-16 14:40:00,36.6,29.7,29.77,South,187,0.0,3.0,76,0.00,,,0.00,Wunderground v.1.15,2013-01-16 19:40:00,
2013-01-16 14:45:00,36.7,29.5,29.77,South,187,1.0,3.0,75,0.00,,,0.00,Wunderground v.1.15,2013-01-16 19:45:00,
2013-01-16 14:50:00,36.8,29.6,29.77,South,187,1.0,1.0,75,0.00,,,0.00,Wunderground v.1.15,2013-01-16 19:50:00,
2013-01-16 14:55:00,36.9,29.7,29.77,South,188,1.0,2.0,75,0.00,,,0.00,Wunderground v.1.15,2013-01-16 19:55:00,
2013-01-16 15:00:00,37.2,29.7,29.77,SW,219,1.0,2.0,74,0.00,,,0.00,Wunderground v.1.15,2013-01-16 20:00:00,
2013-01-16 15:05:00,37.4,29.5,29.77,West,265,1.0,2.0,73,0.00,,,0.00,Wunderground v.1.15,2013-01-16 20:05:00,
2013-01-16 15:10:00,37.4,29.5,29.77,West,265,1.0,1.0,73,0.00,,,0.00,Wunderground v.1.15,2013-01-16 20:10:00,
2013-01-16 15:20:00,37.7,29.8,29.77,SSW,192,1.0,4.0,73,0.00,,,0.00,Wunderground v.1.15,2013-01-16 20:20:00,
2013-01-16 15:25:00,38.0,30.1,29.76,West,267,1.0,4.0,73,0.00,,,0.00,Wunderground v.1.15,2013-01-16 20:25:00,
2013-01-16 15:30:00,38.3,30.1,29.76,West,267,1.0,2.0,72,0.00,,,0.00,Wunderground v.1.15,2013-01-16 20:30:00,
2013-01-16 15:35:00,38.6,30.0,29.77,WSW,247,1.0,2.0,71,0.00,,,0.00,Wunderground v.1.15,2013-01-16 20:35:00,
2013-01-16 15:40:00,38.5,29.9,29.77,West,266,1.0,2.0,71,0.00,,,0.00,Wunderground v.1.15,2013-01-16 20:40:00,
2013-01-16 15:45:00,38.2,29.3,29.77,West,274,2.0,2.0,70,0.00,,,0.00,Wunderground v.1.15,2013-01-16 20:45:00,
2013-01-16 15:50:00,38.0,29.4,29.77,WSW,237,2.0,2.0,71,0.00,,,0.00,Wunderground v.1.15,2013-01-16 20:50:00,
2013-01-16 15:55:00,37.6,29.0,29.77,WNW,288,3.0,3.0,71,0.00,,,0.00,Wunderground v.1.15,2013-01-16 20:55:00,
2013-01-16 16:05:00,36.9,28.7,29.77,WNW,286,2.0,3.0,72,0.00,,,0.00,Wunderground v.1.15,2013-01-16 21:05:00,
2013-01-16 16:10:00,36.5,28.3,29.77,WSW,250,2.0,2.0,72,0.00,,,0.00,Wunderground v.1.15,2013-01-16 21:10:00,
2013-01-16 16:15:00,36.2,28.0,29.77,SW,215,1.0,3.0,72,0.00,,,0.00,Wunderground v.1.15,2013-01-16 21:15:00,
2013-01-16 16:20:00,35.9,28.1,29.78,SW,235,2.0,6.0,73,0.00,,,0.00,Wunderground v.1.15,2013-01-16 21:20:00,
2013-01-16 16:25:00,35.7,27.9,29.78,WSW,240,2.0,6.0,73,0.00,,,0.00,Wunderground v.1.15,2013-01-16 21:25:00,
2013-01-16 16:30:00,35.4,27.9,29.77,WSW,240,1.0,1.0,74,0.00,,,0.00,Wunderground v.1.15,2013-01-16 21:30:00,
2013-01-16 16:35:00,35.2,27.7,29.78,WSW,242,0.0,2.0,74,0.00,,,0.00,Wunderground v.1.15,2013-01-16 21:35:00,
2013-01-16 16:45:00,34.9,27.8,29.78,SW,232,1.0,2.0,75,0.00,,,0.00,Wunderground v.1.15,2013-01-16 21:45:00,
2013-01-16 16:50:00,34.7,27.6,29.77,SW,234,0.0,2.0,75,0.00,,,0.00,Wunderground v.1.15,2013-01-16 21:50:00,
2013-01-16 16:55:00,34.4,27.3,29.78,SW,232,0.0,2.0,75,0.00,,,0.00,Wunderground v.1.15,2013-01-16 21:55:00,
2013-01-16 17:00:00,34.4,27.3,29.78,SW,233,0.0,2.0,75,0.00,,,0.00,Wunderground v.1.15,2013-01-16 22:00:00,
2013-01-16 17:05:00,34.2,27.4,29.77,SW,232,0.0,2.0,76,0.00,,,0.00,Wunderground v.1.15,2013-01-16 22:05:00,
2013-01-16 17:10:00,34.2,27.4,29.78,SW,221,1.0,1.0,76,0.00,,,0.00,Wunderground v.1.15,2013-01-16 22:10:00,
2013-01-16 17:20:00,33.8,27.0,29.78,South,185,0.0,2.0,76,0.00,,,0.00,Wunderground v.1.15,2013-01-16 22:20:00,
2013-01-16 17:25:00,33.8,26.7,29.77,South,190,1.0,2.0,75,0.00,,,0.00,Wunderground v.1.15,2013-01-16 22:25:00,
2013-01-16 17:35:00,33.7,26.6,29.77,South,188,0.0,2.0,75,0.00,,,0.00,Wunderground v.1.15,2013-01-16 22:35:00,
2013-01-16 17:40:00,33.5,26.4,29.78,South,188,0.0,2.0,75,0.00,,,0.00,Wunderground v.1.15,2013-01-16 22:40:00,
2013-01-16 17:45:00,33.3,26.2,29.77,South,188,0.0,2.0,75,0.00,,,0.00,Wunderground v.1.15,2013-01-16 22:45:00,
2013-01-16 17:55:00,32.9,26.2,29.78,SSW,200,0.0,2.0,76,0.00,,,0.00,Wunderground v.1.15,2013-01-16 22:55:00,
2013-01-16 18:00:00,32.9,26.2,29.77,SW,225,0.0,2.0,76,0.00,,,0.00,Wunderground v.1.15,2013-01-16 23:00:00,
2013-01-16 18:05:00,33.0,26.3,29.77,SW,222,1.0,2.0,76,0.00,,,0.00,Wunderground v.1.15,2013-01-16 23:05:00,
2013-01-16 18:10:00,33.0,26.3,29.78,SW,223,0.0,2.0,76,0.00,,,0.00,Wunderground v.1.15,2013-01-16 23:10:00,
2013-01-16 18:15:00,33.0,26.3,29.78,SW,223,0.0,2.0,76,0.00,,,0.00,Wunderground v.1.15,2013-01-16 23:15:00,
2013-01-16 18:20:00,33.0,26.3,29.78,SSW,204,0.0,2.0,76,0.00,,,0.00,Wunderground v.1.15,2013-01-16 23:20:00,
2013-01-16 18:25:00,32.9,26.2,29.78,SSW,204,0.0,2.0,76,0.00,,,0.00,Wunderground v.1.15,2013-01-16 23:25:00,
2013-01-16 18:35:00,32.7,26.3,29.79,SSW,205,0.0,2.0,77,0.00,,,0.00,Wunderground v.1.15,2013-01-16 23:35:00,
2013-01-16 18:40:00,32.6,26.2,29.79,SSW,205,0.0,2.0,77,0.00,,,0.00,Wunderground v.1.15,2013-01-16 23:40:00,
2013-01-16 18:45:00,32.5,26.1,29.79,SSW,205,0.0,2.0,77,0.00,,,0.00,Wunderground v.1.15,2013-01-16 23:45:00,
2013-01-16 18:50:00,32.3,26.2,29.79,SSW,205,0.0,2.0,78,0.00,,,0.00,Wunderground v.1.15,2013-01-16 23:50:00,
2013-01-16 18:55:00,32.3,26.2,29.80,SSW,205,0.0,2.0,78,0.00,,,0.00,Wunderground v.1.15,2013-01-16 23:55:00,
2013-01-16 19:00:00,32.3,25.9,29.80,SSW,205,0.0,2.0,77,0.00,,,0.00,Wunderground v.1.15,2013-01-17 00:00:00,
2013-01-16 19:05:00,32.4,26.0,29.80,SSW,205,1.0,2.0,77,0.00,,,0.00,Wunderground v.1.15,2013-01-17 00:05:00,
2013-01-16 19:15:00,32.5,25.5,29.80,SW,227,1.0,2.0,75,0.00,,,0.00,Wunderground v.1.15,2013-01-17 00:15:00,
2013-01-16 19:20:00,32.4,25.0,29.79,SW,215,1.0,1.0,74,0.00,,,0.00,Wunderground v.1.15,2013-01-17 00:20:00,
2013-01-16 19:25:00,32.3,24.9,29.80,SW,221,0.0,2.0,74,0.00,,,0.00,Wunderground v.1.15,2013-01-17 00:25:00,
2013-01-16 19:30:00,32.6,24.9,29.80,SSE,148,1.0,2.0,73,0.00,,,0.00,Wunderground v.1.15,2013-01-17 00:30:00,
2013-01-16 19:35:00,32.8,24.8,29.80,SW,225,1.0,2.0,72,0.00,,,0.00,Wunderground v.1.15,2013-01-17 00:35:00,
2013-01-16 19:40:00,33.0,24.6,29.80,South,186,1.0,2.0,71,0.00,,,0.00,Wunderground v.1.15,2013-01-17 00:40:00,
2013-01-16 19:50:00,33.1,24.4,29.80,SW,216,1.0,1.0,70,0.00,,,0.00,Wunderground v.1.15,2013-01-17 00:50:00,
2013-01-16 19:55:00,33.1,24.4,29.80,SSW,198,1.0,3.0,70,0.00,,,0.00,Wunderground v.1.15,2013-01-17 00:55:00,
2013-01-16 20:00:00,33.0,24.3,29.80,SSW,205,1.0,2.0,70,0.00,,,0.00,Wunderground v.1.15,2013-01-17 01:00:00,
2013-01-16 20:05:00,33.0,24.3,29.80,SSW,204,1.0,2.0,70,0.00,,,0.00,Wunderground v.1.15,2013-01-17 01:05:00,
2013-01-16 20:10:00,33.1,24.4,29.80,SSW,204,1.0,1.0,70,0.00,,,0.00,Wunderground v.1.15,2013-01-17 01:10:00,
2013-01-16 20:15:00,33.0,24.3,29.80,SW,220,1.0,3.0,70,0.00,,,0.00,Wunderground v.1.15,2013-01-17 01:15:00,
2013-01-16 20:20:00,32.9,24.2,29.80,SSW,205,1.0,1.0,70,0.00,,,0.00,Wunderground v.1.15,2013-01-17 01:20:00,
2013-01-16 20:30:00,32.7,24.0,29.80,SSW,196,1.0,1.0,70,0.00,,,0.00,Wunderground v.1.15,2013-01-17 01:30:00,
2013-01-16 20:35:00,32.5,23.8,29.80,WSW,246,1.0,2.0,70,0.00,,,0.00,Wunderground v.1.15,2013-01-17 01:35:00,
2013-01-16 20:40:00,32.4,23.7,29.80,WSW,257,1.0,1.0,70,0.00,,,0.00,Wunderground v.1.15,2013-01-17 01:40:00,
2013-01-16 20:45:00,32.3,23.6,29.80,West,261,0.0,2.0,70,0.00,,,0.00,Wunderground v.1.15,2013-01-17 01:45:00,
2013-01-16 20:50:00,32.3,23.6,29.80,WSW,258,0.0,2.0,70,0.00,,,0.00,Wunderground v.1.15,2013-01-17 01:50:00,
2013-01-16 20:55:00,32.4,23.7,29.80,South,182,1.0,6.0,70,0.00,,,0.00,Wunderground v.1.15,2013-01-17 01:55:00,
2013-01-16 21:00:00,32.5,23.8,29.81,South,191,1.0,1.0,70,0.00,,,0.00,Wunderground v.1.15,2013-01-17 02:00:00,
2013-01-16 21:10:00,32.5,23.8,29.81,WSW,249,1.0,1.0,70,0.00,,,0.00,Wunderground v.1.15,2013-01-17 02:10:00,
2013-01-16 21:20:00,32.8,24.1,29.81,SSW,213,1.0,1.0,70,0.00,,,0.00,Wunderground v.1.15,2013-01-17 02:20:00,
2013-01-16 21:25:00,32.9,24.2,29.81,West,263,1.0,5.0,70,0.00,,,0.00,Wunderground v.1.15,2013-01-17 02:25:00,
2013-01-16 21:30:00,33.0,24.3,29.82,SW,221,1.0,2.0,70,0.00,,,0.00,Wunderground v.1.15,2013-01-17 02:30:00,
2013-01-16 21:35:00,33.3,24.2,29.82,WSW,252,1.0,2.0,69,0.00,,,0.00,Wunderground v.1.15,2013-01-17 02:35:00,
2013-01-16 21:40:00,33.5,24.1,29.82,WSW,247,0.0,2.0,68,0.00,,,0.00,Wunderground v.1.15,2013-01-17 02:40:00,
2013-01-16 21:50:00,33.9,23.7,29.83,WSW,247,1.0,1.0,66,0.00,,,0.00,Wunderground v.1.15,2013-01-17 02:50:00,
2013-01-16 21:55:00,33.9,23.7,29.82,WSW,252,1.0,2.0,66,0.00,,,0.00,Wunderground v.1.15,2013-01-17 02:55:00,
2013-01-16 22:00:00,34.1,23.6,29.82,WSW,237,1.0,1.0,65,0.00,,,0.00,Wunderground v.1.15,2013-01-17 03:00:00,
2013-01-16 22:05:00,34.3,23.7,29.82,WSW,250,1.0,2.0,65,0.00,,,0.00,Wunderground v.1.15,2013-01-17 03:05:00,
2013-01-16 22:10:00,34.4,23.8,29.82,WSW,245,1.0,1.0,65,0.00,,,0.00,Wunderground v.1.15,2013-01-17 03:10:00,
2013-01-16 22:15:00,34.4,23.8,29.82,WSW,247,1.0,2.0,65,0.00,,,0.00,Wunderground v.1.15,2013-01-17 03:15:00,
2013-01-16 22:20:00,34.4,23.8,29.81,WSW,250,1.0,1.0,65,0.00,,,0.00,Wunderground v.1.15,2013-01-17 03:20:00,
2013-01-16 22:25:00,34.4,23.8,29.81,SW,214,1.0,2.0,65,0.00,,,0.00,Wunderground v.1.15,2013-01-17 03:25:00,
2013-01-16 22:35:00,34.7,24.1,29.81,SW,223,2.0,4.0,65,0.00,,,0.00,Wunderground v.1.15,2013-01-17 03:35:00,
2013-01-16 22:40:00,34.8,24.2,29.81,SSW,203,2.0,2.0,65,0.00,,,0.00,Wunderground v.1.15,2013-01-17 03:40:00,
2013-01-16 22:45:00,34.9,24.7,29.81,SW,234,2.0,2.0,66,0.00,,,0.00,Wunderground v.1.15,2013-01-17 03:45:00,
2013-01-16 22:50:00,34.9,24.7,29.81,SW,236,1.0,1.0,66,0.00,,,0.00,Wunderground v.1.15,2013-01-17 03:50:00,
2013-01-16 22:55:00,35.0,25.1,29.81,WSW,252,1.0,9.0,67,0.00,,,0.00,Wunderground v.1.15,2013-01-17 03:55:00,
2013-01-16 23:00:00,35.2,25.3,29.81,SW,220,2.0,2.0,67,0.00,,,0.00,Wunderground v.1.15,2013-01-17 04:00:00,
2013-01-16 23:05:00,35.3,25.8,29.80,WSW,241,3.0,3.0,68,0.00,,,0.00,Wunderground v.1.15,2013-01-17 04:05:00,
2013-01-16 23:15:00,35.4,25.9,29.82,SW,232,2.0,2.0,68,0.00,,,0.00,Wunderground v.1.15,2013-01-17 04:15:00,
2013-01-16 23:20:00,35.4,25.9,29.82,West,260,2.0,6.0,68,0.00,,,0.00,Wunderground v.1.15,2013-01-17 04:20:00,
2013-01-16 23:25:00,35.5,26.3,29.82,WSW,258,2.0,6.0,69,0.00,,,0.00,Wunderground v.1.15,2013-01-17 04:25:00,
2013-01-16 23:30:00,35.4,26.2,29.82,West,261,2.0,3.0,69,0.00,,,0.00,Wunderground v.1.15,2013-01-17 04:30:00,
2013-01-16 23:35:00,35.3,26.1,29.82,WNW,284,2.0,3.0,69,0.00,,,0.00,Wunderground v.1.15,2013-01-17 04:35:00,
2013-01-16 23:40:00,35.3,26.1,29.82,NW,304,3.0,4.0,69,0.00,,,0.00,Wunderground v.1.15,2013-01-17 04:40:00,
2013-01-16 23:45:00,35.3,26.5,29.82,WNW,288,3.0,4.0,70,0.00,,,0.00,Wunderground v.1.15,2013-01-17 04:45:00,
2013-01-16 23:55:00,35.3,26.5,29.82,West,270,3.0,7.0,70,0.00,,,0.00,Wunderground v.1.15,2013-01-17 04:55:00,